createdAt,value
2022-08-22T00:02:46.510Z,99.90
2022-08-22T00:03:12.733Z,99.90
2022-08-22T04:24:35.027Z,99.90
2022-08-22T04:27:14.065Z,99.90
2022-08-22T04:30:11.447Z,99.90
2022-08-22T05:33:15.056Z,99.90
2022-08-22T05:35:55.846Z,99.90
2022-08-22T05:38:33.637Z,99.90
2022-08-22T05:41:05.758Z,99.90
2022-08-22T05:43:36.148Z,99.90
2022-08-22T05:46:06.241Z,99.90
2022-08-22T05:48:39.346Z,99.90
2022-08-22T05:51:16.001Z,99.90
2022-08-22T05:53:45.401Z,99.90
2022-08-22T05:56:32.517Z,99.90
2022-08-22T05:59:02.930Z,99.90
2022-08-22T06:01:48.467Z,99.90
2022-08-22T06:04:21.268Z,99.90
2022-08-22T06:06:55.121Z,99.90
2022-08-22T06:09:41.889Z,99.90
2022-08-22T06:12:18.206Z,99.90
2022-08-22T06:14:56.806Z,99.90
2022-08-22T06:17:29.129Z,99.90
2022-08-22T06:19:56.047Z,99.90
2022-08-22T06:22:28.408Z,99.90
2022-08-22T06:24:57.529Z,99.90
2022-08-22T06:27:26.892Z,99.90
2022-08-22T06:29:59.608Z,99.90
2022-08-22T06:32:44.508Z,99.90
2022-08-22T06:35:52.584Z,99.90
2022-08-22T06:38:20.261Z,99.90
2022-08-22T06:40:47.648Z,99.90
2022-08-22T06:43:15.125Z,99.90
2022-08-22T06:45:41.904Z,99.90
2022-08-22T06:48:08.499Z,99.90
2022-08-22T06:50:36.707Z,99.90
2022-08-22T06:53:06.353Z,99.90
2022-08-22T06:55:34.703Z,99.90
2022-08-22T06:58:13.446Z,99.90
2022-08-22T07:00:41.897Z,99.90
2022-08-22T07:03:33.283Z,99.90
2022-08-22T07:06:00.167Z,99.90
2022-08-22T07:08:29.850Z,99.90
2022-08-22T07:10:58.728Z,99.90
2022-08-22T07:13:26.322Z,99.90
2022-08-22T07:15:56.350Z,99.90
2022-08-22T07:18:25.068Z,99.90
2022-08-22T07:20:57.126Z,99.90
2022-08-22T07:23:43.637Z,99.90
2022-08-22T07:26:22.446Z,99.90
2022-08-22T07:28:57.838Z,99.90
2022-08-22T07:31:37.283Z,99.90
2022-08-22T07:34:13.252Z,99.90
2022-08-22T07:36:53.149Z,99.90
2022-08-22T07:39:30.039Z,99.90
2022-08-22T07:42:01.905Z,99.90
2022-08-22T07:44:48.116Z,99.90
2022-08-22T07:47:17.891Z,99.90
2022-08-22T07:49:50.770Z,99.90
2022-08-22T07:52:18.026Z,99.90
2022-08-22T07:54:54.183Z,99.90
2022-08-22T07:57:30.459Z,99.90
2022-08-22T07:59:58.699Z,99.90
2022-08-22T08:02:25.684Z,99.90
2022-08-22T08:04:53.745Z,99.90
2022-08-22T08:07:22.030Z,99.90
2022-08-22T08:10:13.082Z,99.90
2022-08-22T08:13:01.809Z,99.90
2022-08-22T08:15:30.378Z,99.90
2022-08-22T08:18:05.509Z,99.90
2022-08-22T08:20:34.466Z,99.90
2022-08-22T08:23:01.766Z,99.90
2022-08-22T08:25:29.815Z,99.90
2022-08-22T08:28:16.321Z,99.90
2022-08-22T08:30:44.804Z,99.90
2022-08-22T08:33:25.904Z,99.90
2022-08-22T08:36:15.785Z,99.90
2022-08-22T08:38:42.369Z,99.90
2022-08-22T08:41:12.079Z,99.90
2022-08-22T08:43:57.513Z,99.90
2022-08-22T08:46:39.963Z,99.90
2022-08-22T08:49:06.926Z,99.90
2022-08-22T08:51:52.341Z,99.90
2022-08-22T08:54:28.184Z,99.90
2022-08-22T08:57:04.248Z,99.90
2022-08-22T08:59:32.846Z,99.90
2022-08-22T09:02:20.378Z,99.90
2022-08-22T09:05:12.492Z,99.90
2022-08-22T09:07:42.395Z,99.90
2022-08-22T09:10:09.038Z,99.90
2022-08-22T09:13:00.326Z,99.90
2022-08-22T09:16:04.586Z,99.90
2022-08-22T09:18:32.055Z,99.90
2022-08-22T09:21:10.877Z,99.90
2022-08-22T09:23:45.492Z,99.90
2022-08-22T09:26:17.592Z,99.90
2022-08-22T09:28:59.571Z,99.90
2022-08-22T09:31:32.784Z,99.90
2022-08-22T09:34:26.833Z,99.90
2022-08-22T09:37:06.566Z,99.90
2022-08-22T09:40:01.002Z,99.90
2022-08-22T09:42:27.688Z,99.90
2022-08-22T09:44:54.345Z,99.90
2022-08-22T09:47:31.295Z,99.90
2022-08-22T09:50:03.172Z,99.90
2022-08-22T09:52:48.753Z,99.90
2022-08-22T09:55:35.057Z,99.90
2022-08-22T09:58:05.799Z,99.90
2022-08-22T10:00:57.705Z,99.90
2022-08-22T10:03:43.603Z,99.90
2022-08-22T10:06:14.065Z,99.90
2022-08-22T10:08:49.385Z,99.90
2022-08-22T10:11:24.696Z,99.90
2022-08-22T10:14:10.090Z,99.90
2022-08-22T10:16:55.558Z,99.90
2022-08-22T10:19:25.682Z,99.90
2022-08-22T10:22:11.502Z,99.90
2022-08-22T10:24:43.564Z,99.90
2022-08-22T10:27:16.969Z,99.90
2022-08-22T10:29:52.804Z,99.40
2022-08-22T10:32:19.484Z,98.90
2022-08-22T10:34:56.588Z,99.80
2022-08-22T10:37:36.690Z,98.60
2022-08-22T10:40:32.425Z,99.20
2022-08-22T10:43:28.983Z,97.90
2022-08-22T10:46:03.937Z,97.90
2022-08-22T10:48:48.230Z,98.20
2022-08-22T10:51:18.565Z,97.90
2022-08-22T10:54:01.583Z,95.80
2022-08-22T10:56:34.924Z,94.20
2022-08-22T10:59:19.941Z,94.90
2022-08-22T11:02:09.905Z,93.00
2022-08-22T11:04:48.430Z,92.40
2022-08-22T11:07:18.162Z,91.10
2022-08-22T11:09:54.330Z,91.40
2022-08-22T11:12:41.638Z,90.10
2022-08-22T11:15:26.226Z,91.50
2022-08-22T11:18:04.615Z,89.30
2022-08-22T11:20:51.098Z,88.70
2022-08-22T11:23:27.886Z,90.60
2022-08-22T11:25:55.175Z,90.20
2022-08-22T11:28:34.337Z,90.80
2022-08-22T11:31:00.955Z,90.90
2022-08-22T13:14:33.886Z,79.90
2022-08-22T13:17:10.271Z,80.10
2022-08-22T13:19:59.449Z,80.40
2022-08-22T13:22:29.079Z,82.10
2022-08-22T13:25:00.861Z,80.50
2022-08-22T13:27:31.697Z,79.50
2022-08-22T13:30:12.410Z,81.00
2022-08-22T13:32:44.443Z,79.00
2022-08-22T13:35:18.570Z,80.60
2022-08-22T14:12:50.821Z,78.90
2022-08-22T14:15:23.316Z,78.10
2022-08-22T14:17:52.035Z,77.30
2022-08-22T14:20:33.553Z,77.70
2022-08-22T14:23:19.409Z,77.90
2022-08-22T14:25:51.231Z,79.30
2022-08-22T14:28:27.724Z,79.00
2022-08-22T14:31:00.665Z,79.30
2022-08-22T14:33:31.269Z,79.70
2022-08-22T14:36:02.119Z,80.90
2022-08-22T14:38:29.851Z,78.90
2022-08-22T14:40:59.834Z,79.10
2022-08-22T14:43:29.742Z,78.70
2022-08-22T14:46:01.978Z,78.80
2022-08-22T14:48:35.400Z,78.30
2022-08-22T14:51:10.367Z,80.10
2022-08-22T14:53:39.100Z,80.10
2022-08-22T14:56:11.026Z,80.60
2022-08-22T14:58:46.997Z,80.40
2022-08-22T15:01:15.525Z,79.40
2022-08-22T15:03:42.819Z,79.70
2022-08-22T15:06:29.353Z,79.70
2022-08-22T15:08:57.034Z,79.40
2022-08-22T15:11:31.827Z,80.10
2022-08-22T15:14:04.860Z,81.10
2022-08-22T15:16:54.911Z,79.40
2022-08-22T15:19:24.540Z,78.90
2022-08-22T15:21:51.675Z,78.40
2022-08-22T15:24:18.765Z,78.30
2022-08-22T15:26:55.323Z,79.40
2022-08-22T15:29:24.966Z,79.10
2022-08-22T15:31:56.422Z,80.30
2022-08-22T15:34:32.003Z,79.50
2022-08-22T15:37:01.294Z,79.20
2022-08-22T15:39:58.933Z,80.70
2022-08-22T15:42:26.572Z,81.50
2022-08-22T15:44:54.152Z,81.70
2022-08-22T15:47:34.958Z,80.90
2022-08-22T15:50:05.732Z,80.00
2022-08-22T15:52:35.514Z,81.40
2022-08-22T15:55:06.686Z,81.80
2022-08-22T15:57:42.173Z,81.10
2022-08-22T16:00:28.093Z,82.70
2022-08-22T16:03:01.541Z,81.90
2022-08-22T16:05:35.498Z,82.30
2022-08-22T16:08:02.847Z,82.90
2022-08-22T16:10:32.408Z,82.70
2022-08-22T16:13:08.290Z,83.40
2022-08-22T16:15:51.531Z,83.20
2022-08-22T16:18:33.327Z,83.20
2022-08-22T16:21:04.353Z,82.70
2022-08-22T16:23:46.570Z,82.30
2022-08-22T16:26:31.568Z,83.20
2022-08-22T16:29:13.457Z,82.40
2022-08-22T16:31:44.018Z,81.90
2022-08-22T16:34:16.896Z,81.90
2022-08-22T16:36:46.027Z,81.50
2022-08-22T16:39:31.889Z,83.40
2022-08-22T16:42:14.312Z,81.40
2022-08-22T16:44:44.087Z,82.10
2022-08-22T16:47:10.723Z,82.60
2022-08-22T16:49:40.906Z,82.70
2022-08-22T16:52:26.136Z,82.80
2022-08-22T16:55:03.873Z,82.70
2022-08-22T16:57:30.452Z,82.80
2022-08-22T17:00:01.997Z,83.20
2022-08-22T17:02:38.079Z,83.40
2022-08-22T17:05:22.051Z,85.00
2022-08-22T17:07:48.661Z,84.80
2022-08-22T17:10:30.931Z,85.10
2022-08-22T17:13:06.301Z,85.50
2022-08-22T17:15:36.016Z,85.20
2022-08-22T17:18:15.256Z,85.60
2022-08-22T17:20:42.129Z,85.80
2022-08-22T17:23:28.332Z,86.30
2022-08-22T17:26:04.437Z,86.80
2022-08-22T17:28:34.010Z,87.20
2022-08-22T17:31:10.290Z,88.20
2022-08-22T17:33:51.752Z,88.00
2022-08-22T17:36:27.554Z,89.10
2022-08-22T17:39:03.434Z,88.50
2022-08-22T17:41:38.082Z,89.40
2022-08-22T17:44:23.541Z,90.60
2022-08-22T17:46:56.515Z,89.80
2022-08-22T17:49:28.867Z,90.10
2022-08-22T17:51:59.771Z,90.70
2022-08-22T17:54:33.369Z,90.80
2022-08-22T17:57:05.290Z,90.80
2022-08-22T17:59:32.943Z,90.90
2022-08-22T18:02:16.722Z,90.60
2022-08-22T18:04:47.899Z,90.90
2022-08-22T18:07:14.578Z,91.40
2022-08-22T18:09:56.905Z,91.30
2022-08-22T18:12:34.044Z,91.80
2022-08-22T18:15:13.299Z,91.70
2022-08-22T18:17:44.357Z,91.90
2022-08-22T18:20:21.663Z,92.50
2022-08-22T18:23:21.418Z,92.10
2022-08-22T18:26:04.084Z,92.70
2022-08-22T18:28:52.506Z,93.10
2022-08-22T18:31:36.415Z,93.40
2022-08-22T18:34:13.475Z,93.50
2022-08-22T18:36:46.947Z,94.10
2022-08-22T18:39:16.819Z,94.00
2022-08-22T18:41:47.552Z,94.00
2022-08-22T18:44:29.965Z,94.30
2022-08-22T18:46:58.102Z,94.40
2022-08-22T18:49:24.808Z,94.80
2022-08-22T18:52:11.520Z,95.10
2022-08-22T18:54:50.593Z,95.00
2022-08-22T18:57:41.567Z,95.00
2022-08-22T19:00:13.071Z,95.20
2022-08-22T19:02:57.360Z,95.30
2022-08-22T19:05:33.238Z,95.50
2022-08-22T19:07:59.992Z,95.80
2022-08-22T19:10:48.919Z,96.10
2022-08-22T19:13:18.800Z,96.10
2022-08-22T19:15:48.430Z,96.50
2022-08-22T19:18:26.773Z,96.70
2022-08-22T19:21:31.085Z,97.00
2022-08-22T19:23:57.757Z,97.20
2022-08-22T19:26:33.501Z,97.80
2022-08-22T19:29:00.212Z,97.80
2022-08-22T19:31:36.293Z,98.10
2022-08-22T19:34:22.554Z,98.40
2022-08-22T19:37:09.510Z,98.90
2022-08-22T19:39:57.577Z,99.00
2022-08-22T19:42:26.323Z,99.40
2022-08-22T19:44:58.697Z,99.70
2022-08-22T19:47:28.691Z,99.30
2022-08-22T19:50:01.292Z,99.80
2022-08-22T19:52:50.977Z,99.20
2022-08-22T19:55:29.782Z,99.40
2022-08-22T19:58:16.673Z,99.30
2022-08-22T20:00:50.263Z,99.40
2022-08-22T20:03:38.028Z,99.60
2022-08-22T20:06:06.029Z,99.80
2022-08-22T20:08:50.456Z,99.90
2022-08-22T20:11:37.694Z,99.90
2022-08-22T20:14:11.823Z,99.90
2022-08-22T20:16:57.260Z,99.40
2022-08-22T20:19:35.194Z,99.80
2022-08-22T20:22:03.689Z,99.90
2022-08-22T20:24:39.565Z,99.90
2022-08-22T20:27:14.573Z,99.90
2022-08-22T20:29:45.365Z,99.90
2022-08-22T20:32:14.694Z,99.90
2022-08-22T20:34:42.633Z,99.90
2022-08-22T20:37:29.509Z,99.90
2022-08-22T20:40:32.271Z,99.90
2022-08-22T20:43:10.349Z,99.90
2022-08-22T20:45:40.451Z,99.90
2022-08-22T20:48:09.942Z,99.90
2022-08-22T20:50:36.639Z,99.90
2022-08-22T20:53:15.942Z,99.90
2022-08-22T20:55:51.915Z,99.90
2022-08-22T20:58:24.377Z,99.90
2022-08-22T21:00:52.400Z,99.90
2022-08-22T21:03:31.285Z,99.90
2022-08-22T21:06:08.466Z,99.90
2022-08-22T21:08:35.112Z,99.90
2022-08-22T21:11:21.550Z,99.90
2022-08-22T21:13:48.771Z,99.90
2022-08-22T21:16:33.724Z,99.90
2022-08-22T21:19:04.059Z,99.90
2022-08-22T21:21:34.666Z,99.90
2022-08-22T21:24:02.861Z,99.90
2022-08-22T21:26:35.216Z,99.90
2022-08-22T21:29:22.436Z,99.90
2022-08-22T21:31:49.072Z,99.90
2022-08-22T21:34:17.366Z,99.90
2022-08-22T21:36:44.093Z,99.90
2022-08-22T21:39:21.686Z,99.90
2022-08-22T21:41:50.022Z,99.90
2022-08-22T21:44:22.970Z,99.90
2022-08-22T21:46:49.595Z,99.90
2022-08-22T21:49:26.737Z,99.90
2022-08-22T21:51:53.482Z,99.90
2022-08-22T21:54:27.866Z,99.90
2022-08-22T21:56:56.314Z,99.90
2022-08-22T21:59:50.759Z,99.90
2022-08-22T22:02:29.445Z,99.90
2022-08-22T22:04:58.801Z,99.90
2022-08-22T22:07:26.164Z,99.90
2022-08-22T22:09:54.603Z,99.90
2022-08-22T22:12:21.905Z,99.90
2022-08-22T22:14:51.886Z,99.90
2022-08-22T22:17:18.991Z,99.90
2022-08-22T22:19:46.259Z,99.90
2022-08-22T22:22:13.101Z,99.90
2022-08-22T22:24:39.939Z,99.90
2022-08-22T22:27:06.652Z,99.90
2022-08-22T22:29:33.504Z,99.90
2022-08-22T22:32:00.264Z,99.90
2022-08-22T22:34:27.004Z,99.90
2022-08-22T22:36:54.544Z,99.90
2022-08-22T22:39:21.298Z,99.90
2022-08-22T22:41:49.288Z,99.90
2022-08-22T22:44:16.119Z,99.90
2022-08-22T22:46:42.837Z,99.90
2022-08-22T22:49:09.575Z,99.90
2022-08-22T22:51:36.217Z,99.90
2022-08-22T22:54:03.670Z,99.90
2022-08-22T22:56:31.735Z,99.90
2022-08-22T22:59:00.617Z,99.90
2022-08-22T23:01:30.368Z,99.90
2022-08-22T23:03:58.614Z,99.90
2022-08-22T23:06:32.363Z,99.90
2022-08-22T23:08:59.073Z,99.90
2022-08-22T23:11:27.555Z,99.90
2022-08-22T23:13:54.821Z,99.90
2022-08-22T23:16:23.514Z,99.90
2022-08-22T23:18:50.740Z,99.90
2022-08-22T23:21:19.656Z,99.90
2022-08-22T23:23:47.315Z,99.90
2022-08-22T23:26:14.661Z,99.90
2022-08-22T23:28:41.506Z,99.90
2022-08-22T23:31:16.427Z,99.90
2022-08-22T23:33:43.686Z,99.90
2022-08-22T23:36:11.864Z,99.90
2022-08-22T23:38:38.607Z,99.90
2022-08-22T23:41:10.106Z,99.90
2022-08-22T23:43:36.998Z,99.90
2022-08-22T23:46:03.830Z,99.90
2022-08-22T23:48:30.473Z,99.90
2022-08-22T23:50:57.219Z,99.90
2022-08-22T23:53:23.996Z,99.90
2022-08-22T23:55:50.687Z,99.90
2022-08-22T23:58:18.085Z,99.90
